Time;durP1;ratioP1;P1;durP2;ratioP2;P2;SDS_P1;SDS_P2;PMS_P1;PMS_P2;Temp;Humidity;BMP_temperature;BMP_pressure;BME280_temperature;BME280_humidity;BME280_pressure;Samples;Min_cycle;Max_cycle;Signal;HPM_P1;HPM_P2
2021/09/17 00:00:18;;;;;;;0.90;0.90;;;19.20;99.90;;;;;;5054950;28;20276;-76
2021/09/17 00:02:45;;;;;;;0.90;0.90;;;19.20;99.90;;;;;;5055126;28;20230;-77
2021/09/17 00:05:12;;;;;;;0.93;0.93;;;19.20;99.90;;;;;;5054805;28;21835;-76
2021/09/17 00:07:39;;;;;;;0.90;0.90;;;19.20;99.90;;;;;;5055291;28;20684;-76
2021/09/17 00:10:08;;;;;;;0.90;0.90;;;19.20;99.90;;;;;;5052327;28;20225;-76
2021/09/17 00:12:36;;;;;;;1.00;0.90;;;19.30;99.90;;;;;;5059959;28;20232;-76
2021/09/17 00:15:04;;;;;;;1.13;1.00;;;19.30;99.90;;;;;;5053621;28;20227;-76
2021/09/17 00:17:31;;;;;;;1.13;1.10;;;19.20;99.90;;;;;;5053934;28;20226;-75
2021/09/17 00:19:58;;;;;;;0.95;0.95;;;19.20;99.90;;;;;;5053088;28;20225;-77
2021/09/17 00:22:25;;;;;;;2.58;1.00;;;19.20;99.90;;;;;;5057561;28;20734;-76
2021/09/17 00:24:52;;;;;;;1.02;1.02;;;19.30;99.90;;;;;;5053156;28;20226;-76
2021/09/17 00:27:19;;;;;;;1.05;0.95;;;19.30;99.90;;;;;;5052168;28;20214;-77
2021/09/17 00:29:47;;;;;;;1.73;1.00;;;19.30;99.90;;;;;;5051870;28;20231;-76
2021/09/17 00:32:14;;;;;;;0.80;0.80;;;19.20;99.90;;;;;;5055004;28;20252;-76
2021/09/17 00:34:41;;;;;;;1.15;1.00;;;19.20;99.90;;;;;;5055082;28;20245;-76
2021/09/17 00:37:09;;;;;;;0.80;0.80;;;19.10;99.90;;;;;;5055769;28;20222;-76
2021/09/17 00:39:36;;;;;;;1.10;1.00;;;19.10;99.90;;;;;;5054384;28;20246;-76
2021/09/17 00:42:03;;;;;;;1.13;1.02;;;19.10;99.90;;;;;;5055400;28;20809;-76
2021/09/17 00:44:30;;;;;;;1.00;1.00;;;19.10;99.90;;;;;;5054992;28;20422;-76
2021/09/17 00:46:58;;;;;;;1.02;1.00;;;19.10;99.90;;;;;;5055121;28;20605;-76
2021/09/17 00:49:28;;;;;;;1.00;1.00;;;19.20;99.90;;;;;;5057192;28;20290;-77
2021/09/17 00:51:55;;;;;;;1.20;1.10;;;19.20;99.90;;;;;;5055971;28;20241;-77
2021/09/17 00:54:22;;;;;;;1.00;1.00;;;19.20;99.90;;;;;;5053972;28;20222;-76
2021/09/17 00:56:49;;;;;;;1.83;0.90;;;19.10;99.90;;;;;;5057307;28;20222;-76
2021/09/17 00:59:17;;;;;;;1.48;1.38;;;19.10;99.90;;;;;;5051499;28;21656;-75
2021/09/17 01:01:45;;;;;;;1.50;1.13;;;19.00;99.90;;;;;;5054595;28;20351;-77
2021/09/17 01:04:13;;;;;;;1.48;1.38;;;19.00;99.90;;;;;;5055377;28;20766;-77
2021/09/17 01:06:43;;;;;;;2.22;1.45;;;19.00;99.90;;;;;;5057746;28;20241;-76
2021/09/17 01:09:10;;;;;;;1.30;1.20;;;19.00;99.90;;;;;;5056157;28;20304;-75
2021/09/17 01:11:37;;;;;;;2.22;1.33;;;19.00;99.90;;;;;;5057548;28;20221;-76
2021/09/17 01:14:05;;;;;;;1.40;1.30;;;19.00;99.90;;;;;;5055270;28;20227;-76
2021/09/17 01:16:32;;;;;;;1.27;1.17;;;19.10;99.90;;;;;;5053256;28;20799;-75
2021/09/17 01:18:59;;;;;;;2.67;1.20;;;19.10;99.90;;;;;;5049756;28;20287;-76
2021/09/17 01:21:28;;;;;;;1.15;1.15;;;19.00;99.90;;;;;;5050484;28;20227;-77
2021/09/17 01:23:55;;;;;;;1.38;1.27;;;19.00;99.90;;;;;;5053833;28;20230;-75
2021/09/17 01:26:22;;;;;;;0.90;0.90;;;19.00;99.90;;;;;;5050132;28;20226;-76
2021/09/17 01:28:49;;;;;;;1.30;1.08;;;19.00;99.90;;;;;;5052298;28;20226;-77
2021/09/17 01:31:17;;;;;;;1.30;1.20;;;19.00;99.90;;;;;;5053956;28;20283;-76
2021/09/17 01:33:44;;;;;;;1.40;1.30;;;19.00;99.90;;;;;;5054031;28;20773;-76
2021/09/17 01:36:12;;;;;;;1.95;1.30;;;19.00;99.90;;;;;;5054525;28;20226;-76
2021/09/17 01:38:42;;;;;;;1.40;1.30;;;19.00;99.90;;;;;;5056471;28;20214;-76
2021/09/17 01:41:10;;;;;;;1.05;1.05;;;19.00;99.90;;;;;;5053362;28;20214;-77
2021/09/17 01:43:37;;;;;;;1.13;1.10;;;19.00;99.90;;;;;;5056510;28;20226;-76
2021/09/17 01:46:04;;;;;;;1.27;1.23;;;19.00;99.90;;;;;;5048084;28;20226;-75
2021/09/17 01:48:32;;;;;;;1.00;1.00;;;19.10;99.90;;;;;;5052515;28;20279;-76
2021/09/17 01:50:59;;;;;;;1.40;1.30;;;19.00;99.90;;;;;;5055906;28;20257;-76
2021/09/17 01:53:26;;;;;;;1.20;1.10;;;19.00;99.90;;;;;;5056134;28;20218;-76
2021/09/17 01:55:55;;;;;;;1.33;1.23;;;19.00;99.90;;;;;;5054305;28;20222;-76
2021/09/17 01:58:22;;;;;;;1.40;1.30;;;19.00;99.90;;;;;;5054238;28;20218;-76
2021/09/17 02:00:49;;;;;;;1.50;1.40;;;19.00;99.90;;;;;;5055976;28;20222;-76
2021/09/17 02:03:16;;;;;;;1.30;1.13;;;19.00;99.90;;;;;;5057644;28;20743;-76
2021/09/17 02:05:43;;;;;;;1.35;1.27;;;19.00;99.90;;;;;;5052040;28;20226;-76
2021/09/17 02:08:10;;;;;;;1.35;1.30;;;19.00;99.90;;;;;;5053602;28;20231;-75
2021/09/17 02:10:37;;;;;;;1.38;1.27;;;19.00;99.90;;;;;;5057420;28;20248;-76
2021/09/17 02:13:06;;;;;;;1.50;1.40;;;19.00;99.90;;;;;;5056525;28;20226;-76
2021/09/17 02:15:33;;;;;;;1.95;1.55;;;19.00;99.90;;;;;;5058998;28;20234;-76
2021/09/17 02:18:00;;;;;;;1.63;1.48;;;19.00;99.90;;;;;;5049437;28;20271;-76
2021/09/17 02:20:28;;;;;;;1.30;1.30;;;19.00;99.90;;;;;;5053026;28;20394;-77
2021/09/17 02:22:55;;;;;;;1.48;1.38;;;19.00;99.90;;;;;;5059308;28;20283;-75
2021/09/17 02:25:22;;;;;;;1.27;1.23;;;19.10;99.90;;;;;;5057232;28;20822;-77
2021/09/17 02:27:49;;;;;;;1.30;1.20;;;19.10;99.90;;;;;;5058161;28;20877;-76
2021/09/17 02:30:17;;;;;;;1.13;1.10;;;19.10;99.90;;;;;;5056902;28;20226;-76
2021/09/17 02:32:45;;;;;;;1.52;1.42;;;19.10;99.90;;;;;;5057674;28;20288;-76
2021/09/17 02:35:12;;;;;;;2.20;1.27;;;19.10;99.90;;;;;;5054064;28;20374;-78
2021/09/17 02:37:40;;;;;;;3.63;1.20;;;19.10;99.90;;;;;;5057514;28;20337;-76
2021/09/17 02:40:09;;;;;;;1.02;0.93;;;19.10;99.90;;;;;;5056621;28;20238;-75
2021/09/17 02:42:36;;;;;;;1.25;1.13;;;19.20;99.90;;;;;;5055025;28;20231;-76
2021/09/17 02:45:04;;;;;;;1.70;1.27;;;19.10;99.90;;;;;;5052518;28;20296;-76
2021/09/17 02:47:33;;;;;;;1.33;1.20;;;19.10;99.90;;;;;;5059411;28;20230;-76
2021/09/17 02:50:00;;;;;;;1.50;1.40;;;19.00;99.90;;;;;;5051249;28;20624;-76
2021/09/17 02:52:27;;;;;;;1.40;1.27;;;19.00;99.90;;;;;;5059959;28;20268;-78
2021/09/17 02:54:54;;;;;;;1.50;1.40;;;19.00;99.90;;;;;;5059472;28;20222;-76
2021/09/17 02:57:21;;;;;;;1.20;1.10;;;18.90;99.90;;;;;;5057626;28;20219;-76
2021/09/17 02:59:48;;;;;;;1.40;1.30;;;19.00;99.90;;;;;;5056493;28;20222;-76
2021/09/17 03:02:16;;;;;;;1.27;1.17;;;18.90;99.90;;;;;;5058666;28;20295;-76
2021/09/17 03:04:45;;;;;;;1.58;1.48;;;18.90;99.90;;;;;;5057738;28;20656;-77
2021/09/17 03:07:12;;;;;;;1.40;1.30;;;18.90;99.90;;;;;;5055450;28;20341;-77
2021/09/17 03:09:39;;;;;;;1.45;1.35;;;18.90;99.90;;;;;;5058647;28;20276;-76
2021/09/17 03:12:07;;;;;;;1.60;1.30;;;18.90;99.90;;;;;;5065013;28;20746;-77
2021/09/17 03:14:34;;;;;;;1.50;1.40;;;18.90;99.90;;;;;;5057657;28;20222;-76
2021/09/17 03:17:01;;;;;;;1.23;1.17;;;18.80;99.90;;;;;;5053459;28;20237;-76
2021/09/17 03:19:28;;;;;;;1.27;1.20;;;18.80;99.90;;;;;;5053478;28;20226;-76
2021/09/17 03:21:59;;;;;;;1.42;1.33;;;18.80;99.90;;;;;;5058076;28;20226;-78
2021/09/17 03:24:26;;;;;;;2.28;1.30;;;18.80;99.90;;;;;;5060801;28;20226;-77
2021/09/17 03:26:54;;;;;;;0.90;0.90;;;18.80;99.90;;;;;;5054165;28;20223;-77
2021/09/17 03:29:21;;;;;;;1.52;1.42;;;18.80;99.90;;;;;;5060565;28;20279;-76
2021/09/17 03:31:48;;;;;;;1.30;1.20;;;18.70;99.90;;;;;;5056393;28;20226;-77
2021/09/17 03:34:15;;;;;;;1.38;1.30;;;18.70;99.90;;;;;;5058041;28;20214;-76
2021/09/17 03:36:42;;;;;;;1.23;1.23;;;18.70;99.90;;;;;;5060803;28;20283;-77
2021/09/17 03:39:11;;;;;;;1.20;1.20;;;18.70;99.90;;;;;;5061895;28;20356;-76
2021/09/17 03:41:39;;;;;;;1.20;1.20;;;18.70;99.90;;;;;;5055518;28;20218;-76
2021/09/17 03:44:07;;;;;;;1.30;1.20;;;18.80;99.90;;;;;;5052627;28;20244;-76
2021/09/17 03:46:34;;;;;;;1.40;1.30;;;18.80;99.90;;;;;;5060738;28;20271;-76
2021/09/17 03:49:01;;;;;;;1.30;1.20;;;18.80;99.90;;;;;;5057025;28;20768;-76
2021/09/17 03:51:27;;;;;;;1.40;1.20;;;18.80;99.90;;;;;;5055072;28;20215;-76
2021/09/17 03:53:54;;;;;;;2.00;1.35;;;18.80;99.90;;;;;;5053692;28;20227;-76
2021/09/17 03:56:23;;;;;;;1.35;1.25;;;18.80;99.90;;;;;;5058305;28;20229;-77
2021/09/17 03:58:50;;;;;;;1.10;1.10;;;18.80;99.90;;;;;;5058357;28;20214;-77
2021/09/17 04:01:17;;;;;;;1.33;1.25;;;18.80;99.90;;;;;;5056220;28;20222;-76
2021/09/17 04:03:44;;;;;;;1.52;1.42;;;18.80;99.90;;;;;;5061617;28;20239;-78
2021/09/17 04:06:11;;;;;;;1.40;1.30;;;18.80;99.90;;;;;;5059523;28;20222;-78
2021/09/17 04:08:38;;;;;;;1.77;1.38;;;18.80;99.90;;;;;;5031601;28;20294;-75
2021/09/17 04:11:05;;;;;;;1.30;1.23;;;18.70;99.90;;;;;;5055627;28;20651;-77
2021/09/17 04:13:33;;;;;;;1.30;1.20;;;18.70;99.90;;;;;;5054177;28;20223;-75
2021/09/17 04:16:00;;;;;;;1.10;1.00;;;18.70;99.90;;;;;;5057025;28;20231;-76
2021/09/17 04:18:27;;;;;;;1.35;1.20;;;18.70;99.90;;;;;;5056608;28;20222;-76
2021/09/17 04:20:54;;;;;;;1.50;1.30;;;18.70;99.90;;;;;;5053631;28;20640;-76
2021/09/17 04:23:21;;;;;;;1.75;1.20;;;18.70;99.90;;;;;;5059606;28;20224;-76
2021/09/17 04:25:48;;;;;;;1.45;1.35;;;18.70;99.90;;;;;;5059760;28;20253;-75
2021/09/17 04:28:15;;;;;;;1.40;1.30;;;18.60;99.90;;;;;;5059248;28;20222;-77
2021/09/17 04:30:44;;;;;;;1.60;1.50;;;18.60;99.90;;;;;;5056268;28;20248;-75
2021/09/17 04:33:14;;;;;;;1.50;1.40;;;18.60;99.90;;;;;;5061878;28;20218;-76
2021/09/17 04:35:42;;;;;;;1.40;1.30;;;18.60;99.90;;;;;;5055470;28;20229;-76
2021/09/17 04:38:13;;;;;;;2.60;1.45;;;18.60;99.90;;;;;;5055480;28;20227;-76
2021/09/17 04:40:40;;;;;;;1.40;1.30;;;18.60;99.90;;;;;;5055052;28;20258;-76
2021/09/17 04:43:07;;;;;;;1.98;1.50;;;18.60;99.90;;;;;;5055453;28;20235;-77
2021/09/17 04:45:34;;;;;;;1.52;1.42;;;18.60;99.90;;;;;;5058576;28;20271;-77
2021/09/17 04:48:11;;;;;;;1.85;1.50;;;18.60;99.90;;;;;;5058920;28;20283;-77
2021/09/17 04:50:39;;;;;;;1.40;1.30;;;18.60;99.90;;;;;;5015032;28;20221;-76
2021/09/17 04:53:06;;;;;;;1.52;1.42;;;18.60;99.90;;;;;;5056889;28;20230;-76
2021/09/17 04:55:34;;;;;;;1.60;1.30;;;18.60;99.90;;;;;;5057746;28;20236;-76
2021/09/17 04:58:03;;;;;;;1.20;1.10;;;18.60;99.90;;;;;;5058601;28;20665;-75
2021/09/17 05:00:30;;;;;;;2.30;1.40;;;18.60;99.90;;;;;;5052255;28;20222;-77
2021/09/17 05:02:57;;;;;;;1.48;1.33;;;18.60;99.90;;;;;;5056653;28;20594;-76
2021/09/17 05:05:26;;;;;;;1.70;1.60;;;18.60;99.90;;;;;;5051058;28;20728;-77
2021/09/17 05:07:53;;;;;;;1.30;1.30;;;18.60;99.90;;;;;;5057202;28;20222;-75
2021/09/17 05:10:20;;;;;;;1.52;1.33;;;18.70;99.90;;;;;;5054663;28;20674;-76
2021/09/17 05:12:47;;;;;;;1.50;1.40;;;18.70;99.90;;;;;;5053656;28;20643;-76
2021/09/17 05:15:15;;;;;;;1.60;1.50;;;18.70;99.90;;;;;;5050714;28;20230;-75
2021/09/17 05:17:42;;;;;;;2.05;1.60;;;18.70;99.90;;;;;;5056951;28;20221;-76
2021/09/17 05:20:11;;;;;;;2.38;1.20;;;18.70;99.90;;;;;;5057135;28;20230;-77
2021/09/17 05:22:39;;;;;;;1.45;1.35;;;18.70;99.90;;;;;;5054256;28;20218;-78
2021/09/17 05:25:07;;;;;;;2.00;1.50;;;18.70;99.90;;;;;;5055155;28;20230;-76
2021/09/17 05:27:34;;;;;;;1.50;1.40;;;18.70;99.90;;;;;;5051398;28;20738;-76
2021/09/17 05:30:01;;;;;;;1.92;1.42;;;18.70;99.90;;;;;;5051659;28;20222;-76
2021/09/17 05:32:28;;;;;;;8.30;1.80;;;18.80;99.90;;;;;;5053285;28;20625;-78
2021/09/17 05:34:55;;;;;;;3.58;1.80;;;18.80;99.90;;;;;;5053594;28;20288;-78
2021/09/17 05:37:22;;;;;;;4.80;1.65;;;18.90;99.90;;;;;;5056441;28;20287;-78
2021/09/17 05:39:51;;;;;;;2.28;1.40;;;18.90;99.90;;;;;;5049246;28;20783;-76
2021/09/17 05:42:20;;;;;;;3.60;1.65;;;18.90;99.90;;;;;;5050213;28;20217;-76
2021/09/17 05:44:47;;;;;;;1.75;1.65;;;19.00;99.90;;;;;;5048881;28;20230;-76
2021/09/17 05:47:14;;;;;;;2.05;1.60;;;19.00;99.90;;;;;;5049448;28;20218;-74
2021/09/17 05:49:42;;;;;;;1.45;1.35;;;18.90;99.90;;;;;;5040107;28;20221;-76
2021/09/17 05:52:09;;;;;;;1.40;1.30;;;18.80;99.90;;;;;;5053384;28;20749;-76
2021/09/17 05:54:37;;;;;;;1.15;1.15;;;18.70;99.90;;;;;;5056148;28;20275;-76
2021/09/17 05:57:07;;;;;;;3.80;1.60;;;18.60;99.90;;;;;;5055343;28;20222;-75
2021/09/17 05:59:34;;;;;;;1.88;1.45;;;18.60;99.90;;;;;;5057070;28;20229;-75
2021/09/17 06:02:03;;;;;;;1.42;1.33;;;18.60;99.90;;;;;;5056648;28;20722;-75
2021/09/17 06:04:30;;;;;;;1.33;1.27;;;18.60;99.90;;;;;;5057725;28;20223;-75
2021/09/17 06:06:57;;;;;;;1.20;1.20;;;18.60;99.90;;;;;;5053379;28;20226;-76
2021/09/17 06:09:24;;;;;;;1.50;1.40;;;18.70;99.90;;;;;;5055416;28;20577;-76
2021/09/17 06:11:51;;;;;;;1.25;0.90;;;18.70;99.90;;;;;;5073471;28;20802;-77
2021/09/17 06:14:20;;;;;;;1.35;1.25;;;18.90;99.90;;;;;;5050046;28;20229;-75
2021/09/17 06:16:48;;;;;;;1.38;1.27;;;19.30;99.90;;;;;;5054850;28;20238;-76
2021/09/17 06:19:15;;;;;;;1.35;1.25;;;19.90;99.90;;;;;;5059710;28;20238;-76
2021/09/17 06:21:42;;;;;;;2.03;1.73;;;20.50;99.90;;;;;;5055781;28;20287;-76
2021/09/17 06:24:09;;;;;;;3.65;1.55;;;20.90;99.90;;;;;;5056379;28;20778;-77
2021/09/17 06:26:36;;;;;;;2.00;1.63;;;21.20;99.90;;;;;;5053645;28;20222;-76
2021/09/17 06:29:06;;;;;;;1.42;1.30;;;21.40;99.90;;;;;;5054478;28;20230;-76
2021/09/17 06:31:35;;;;;;;2.67;1.23;;;21.30;99.90;;;;;;5052207;28;20238;-76
2021/09/17 06:34:03;;;;;;;1.17;1.17;;;21.40;99.90;;;;;;5053884;28;20257;-77
2021/09/17 06:36:30;;;;;;;2.65;1.42;;;21.50;99.90;;;;;;5051317;28;20229;-75
2021/09/17 06:39:00;;;;;;;2.22;1.38;;;21.80;99.90;;;;;;5057588;28;20226;-78
2021/09/17 06:41:28;;;;;;;1.35;1.25;;;22.00;99.90;;;;;;5058846;28;20236;-75
2021/09/17 06:43:55;;;;;;;1.55;1.45;;;22.10;99.90;;;;;;5056359;28;21332;-78
2021/09/17 06:46:22;;;;;;;4.72;1.45;;;22.30;99.90;;;;;;5056769;28;20222;-76
2021/09/17 06:48:50;;;;;;;1.67;1.27;;;22.30;99.90;;;;;;5058889;28;20296;-76
2021/09/17 06:51:18;;;;;;;1.73;1.20;;;22.40;99.90;;;;;;5050726;28;20746;-76
2021/09/17 06:53:45;;;;;;;3.70;1.30;;;22.70;99.90;;;;;;5049720;28;20682;-76
2021/09/17 06:56:13;;;;;;;1.67;1.00;;;22.80;99.90;;;;;;5050432;28;20887;-77
2021/09/17 06:58:40;;;;;;;1.33;1.13;;;23.00;99.90;;;;;;5049457;28;20238;-76
2021/09/17 07:01:07;;;;;;;1.52;1.23;;;23.10;99.90;;;;;;5047002;28;20314;-76
2021/09/17 07:03:34;;;;;;;2.13;1.15;;;23.20;99.90;;;;;;5051560;28;20291;-75
2021/09/17 07:06:02;;;;;;;1.70;1.42;;;23.00;99.90;;;;;;5057053;28;20296;-75
2021/09/17 07:08:29;;;;;;;2.05;1.20;;;22.90;99.90;;;;;;5046970;28;20263;-75
2021/09/17 07:10:56;;;;;;;1.77;1.67;;;23.00;99.90;;;;;;5046127;28;20222;-75
2021/09/17 07:13:24;;;;;;;1.52;1.42;;;22.80;99.90;;;;;;5051990;28;20937;-76
2021/09/17 07:15:51;;;;;;;1.80;1.70;;;22.60;99.90;;;;;;5047673;28;20222;-76
2021/09/17 07:18:18;;;;;;;2.33;1.50;;;22.50;99.90;;;;;;5047558;28;20290;-75
2021/09/17 07:20:47;;;;;;;3.85;1.50;;;22.40;99.90;;;;;;5050642;28;20230;-76
2021/09/17 07:23:15;;;;;;;2.05;1.70;;;22.50;99.90;;;;;;5046108;28;20628;-75
2021/09/17 07:25:42;;;;;;;1.30;1.20;;;22.90;99.90;;;;;;5050752;28;20229;-76
2021/09/17 07:28:09;;;;;;;1.50;1.40;;;23.20;99.90;;;;;;5050083;28;20225;-76
2021/09/17 07:30:36;;;;;;;2.40;1.20;;;23.20;99.90;;;;;;5044209;28;20218;-76
2021/09/17 07:33:03;;;;;;;2.65;1.67;;;23.10;99.90;;;;;;5044463;28;20234;-74
2021/09/17 07:35:31;;;;;;;2.90;1.45;;;22.90;99.90;;;;;;5047386;28;20627;-77
2021/09/17 07:37:58;;;;;;;2.17;1.70;;;22.60;99.90;;;;;;5050575;28;20226;-76
2021/09/17 07:40:27;;;;;;;2.03;1.30;;;22.50;99.90;;;;;;5047152;28;20802;-77
2021/09/17 07:42:54;;;;;;;1.50;1.40;;;22.90;99.90;;;;;;5045594;28;20210;-76
2021/09/17 07:45:23;;;;;;;1.38;1.27;;;22.70;99.90;;;;;;5046801;28;20236;-76
2021/09/17 07:47:51;;;;;;;1.35;1.10;;;22.30;99.90;;;;;;5046342;28;20224;-76
2021/09/17 07:50:18;;;;;;;1.52;1.42;;;21.90;99.90;;;;;;5048031;28;20218;-77
2021/09/17 07:52:46;;;;;;;2.30;1.42;;;21.70;99.90;;;;;;5046560;28;20226;-77
2021/09/17 07:55:13;;;;;;;2.30;1.23;;;21.50;99.90;;;;;;5046740;28;20284;-76
2021/09/17 07:57:42;;;;;;;3.33;1.48;;;21.50;99.90;;;;;;5053239;28;20253;-76
2021/09/17 08:00:12;;;;;;;1.42;1.33;;;21.90;99.90;;;;;;5058401;28;20227;-76
2021/09/17 08:02:39;;;;;;;1.70;1.60;;;22.30;99.90;;;;;;5048920;28;20301;-76
2021/09/17 08:05:07;;;;;;;1.50;1.40;;;22.70;99.90;;;;;;5049206;28;20267;-77
2021/09/17 08:07:34;;;;;;;1.60;1.50;;;23.10;99.90;;;;;;5045810;28;20255;-77
2021/09/17 08:10:01;;;;;;;1.52;1.42;;;23.60;99.90;;;;;;5045512;28;20213;-76
2021/09/17 08:12:28;;;;;;;1.38;1.20;;;24.00;99.90;;;;;;5046345;28;20282;-75
2021/09/17 08:14:57;;;;;;;2.70;1.70;;;24.20;99.90;;;;;;5045827;28;20241;-75
2021/09/17 08:17:24;;;;;;;2.10;1.90;;;24.40;99.90;;;;;;5045123;28;20237;-75
2021/09/17 08:19:51;;;;;;;1.80;1.70;;;24.30;99.90;;;;;;5046878;28;20231;-76
2021/09/17 08:22:18;;;;;;;1.70;1.60;;;24.50;99.90;;;;;;5048560;28;20221;-78
2021/09/17 08:24:45;;;;;;;2.22;1.50;;;24.60;99.90;;;;;;5051225;28;20230;-78
2021/09/17 08:27:12;;;;;;;1.75;1.65;;;25.00;99.90;;;;;;5049777;28;20538;-76
2021/09/17 08:29:39;;;;;;;1.83;1.70;;;25.40;99.90;;;;;;5048942;28;20226;-76
2021/09/17 08:32:08;;;;;;;2.20;1.55;;;25.50;99.90;;;;;;5047387;28;20716;-78
2021/09/17 08:34:35;;;;;;;2.22;1.40;;;25.60;99.90;;;;;;5050951;28;20748;-77
2021/09/17 08:37:07;;;;;;;2.65;1.38;;;25.60;99.90;;;;;;5046907;28;20310;-75
2021/09/17 08:39:36;;;;;;;1.58;1.42;;;25.40;99.90;;;;;;5049825;28;20350;-78
2021/09/17 08:42:05;;;;;;;1.42;1.30;;;25.00;99.90;;;;;;5048776;28;20317;-78
2021/09/17 08:44:32;;;;;;;1.45;1.30;;;24.80;99.90;;;;;;5052026;28;20309;-77
2021/09/17 08:47:00;;;;;;;3.90;1.60;;;24.70;99.90;;;;;;5050039;28;20297;-78
2021/09/17 08:49:28;;;;;;;1.85;1.33;;;24.80;99.90;;;;;;5047243;28;20241;-78
2021/09/17 08:51:55;;;;;;;1.58;1.30;;;24.90;99.90;;;;;;5057724;28;20225;-77
2021/09/17 08:54:22;;;;;;;1.58;1.10;;;24.80;99.90;;;;;;5054535;28;20274;-77
2021/09/17 08:56:50;;;;;;;1.23;1.13;;;24.60;99.90;;;;;;5050935;28;20651;-77
2021/09/17 08:59:17;;;;;;;1.40;1.25;;;24.40;99.90;;;;;;5048633;28;20703;-77
2021/09/17 09:01:44;;;;;;;2.20;1.45;;;24.20;99.90;;;;;;5048751;28;20409;-77
2021/09/17 09:04:13;;;;;;;1.52;1.42;;;24.20;99.90;;;;;;5048207;28;20245;-76
2021/09/17 09:06:46;;;;;;;1.60;1.50;;;24.30;99.90;;;;;;5048744;28;20695;-77
2021/09/17 09:09:16;;;;;;;3.28;1.65;;;24.30;99.90;;;;;;5048731;28;20916;-76
2021/09/17 09:11:47;;;;;;;1.58;1.48;;;24.30;99.90;;;;;;5047883;28;20222;-78
2021/09/17 09:14:14;;;;;;;1.75;1.40;;;24.20;99.90;;;;;;5047065;28;20230;-78
2021/09/17 09:16:44;;;;;;;1.42;1.33;;;24.40;99.90;;;;;;5045674;28;20234;-77
2021/09/17 09:19:27;;;;;;;1.70;1.60;;;24.50;99.90;;;;;;5052397;28;20229;-78
2021/09/17 09:22:10;;;;;;;3.95;2.10;;;24.60;99.90;;;;;;5046808;28;20278;-78
2021/09/17 09:24:40;;;;;;;2.13;1.92;;;24.60;99.90;;;;;;5046781;28;20237;-78
2021/09/17 09:27:11;;;;;;;2.47;1.80;;;24.60;99.90;;;;;;5044184;28;20229;-77
2021/09/17 09:29:40;;;;;;;3.15;1.60;;;24.60;99.90;;;;;;5025761;28;20226;-78
2021/09/17 09:32:07;;;;;;;3.20;1.95;;;24.80;99.90;;;;;;5050577;28;20938;-77
2021/09/17 09:34:55;;;;;;;2.65;2.15;;;25.20;99.90;;;;;;5053023;28;20283;-78
2021/09/17 09:37:26;;;;;;;1.90;1.70;;;25.40;99.90;;;;;;5052158;28;20230;-78
2021/09/17 09:39:56;;;;;;;1.77;1.67;;;25.30;99.90;;;;;;5047145;28;20226;-78
2021/09/17 09:42:34;;;;;;;2.35;1.70;;;25.40;99.90;;;;;;5049064;28;20241;-78
2021/09/17 09:45:17;;;;;;;2.00;1.80;;;25.70;99.90;;;;;;5052473;28;20900;-78
2021/09/17 09:47:46;;;;;;;2.08;1.40;;;25.70;99.90;;;;;;5044259;28;21017;-77
2021/09/17 09:50:16;;;;;;;1.88;1.75;;;25.90;99.90;;;;;;5048739;28;20228;-79
2021/09/17 09:52:44;;;;;;;1.70;1.60;;;26.20;99.90;;;;;;5049958;28;20231;-77
2021/09/17 09:55:12;;;;;;;1.50;1.40;;;26.30;99.90;;;;;;5049938;28;20225;-77
2021/09/17 09:57:42;;;;;;;1.75;1.35;;;26.20;99.90;;;;;;5050115;28;20226;-78
2021/09/17 10:00:12;;;;;;;1.52;1.40;;;26.00;99.90;;;;;;5047232;28;20744;-78
2021/09/17 10:02:40;;;;;;;1.75;1.23;;;25.80;99.90;;;;;;5050588;28;20309;-78
2021/09/17 10:05:09;;;;;;;1.60;1.50;;;25.60;99.90;;;;;;5048698;28;20237;-78
2021/09/17 10:07:37;;;;;;;2.42;1.30;;;25.60;99.90;;;;;;5047853;28;20218;-78
2021/09/17 10:10:08;;;;;;;1.23;1.10;;;25.80;99.90;;;;;;5042807;28;20291;-78
2021/09/17 10:12:36;;;;;;;1.75;1.25;;;26.00;99.90;;;;;;5050415;28;20222;-77
2021/09/17 10:15:04;;;;;;;1.20;1.10;;;26.00;99.90;;;;;;5048028;28;22904;-78
2021/09/17 10:17:34;;;;;;;1.35;1.23;;;26.20;99.90;;;;;;5047954;28;20234;-77
2021/09/17 10:20:05;;;;;;;1.73;1.20;;;26.20;99.90;;;;;;5044647;28;20765;-77
2021/09/17 10:22:35;;;;;;;2.15;1.05;;;26.40;99.90;;;;;;5047231;28;20223;-77
2021/09/17 10:25:15;;;;;;;3.60;1.25;;;26.70;99.90;;;;;;5046023;28;20230;-78
2021/09/17 10:27:43;;;;;;;1.20;1.10;;;26.90;99.90;;;;;;5045778;28;20225;-77
2021/09/17 10:30:13;;;;;;;1.13;1.02;;;26.50;99.90;;;;;;5048331;28;20226;-78
2021/09/17 10:32:43;;;;;;;2.35;1.02;;;26.20;99.90;;;;;;5048384;28;20751;-79
2021/09/17 10:35:13;;;;;;;1.50;0.98;;;26.20;99.90;;;;;;5051039;28;20233;-78
2021/09/17 10:38:03;;;;;;;1.00;1.00;;;26.20;99.90;;;;;;5051378;28;20230;-79
2021/09/17 10:40:42;;;;;;;1.45;1.35;;;26.40;99.90;;;;;;5040120;28;20415;-78
2021/09/17 10:43:21;;;;;;;1.30;1.20;;;26.50;99.90;;;;;;5048478;28;20746;-78
2021/09/17 10:45:49;;;;;;;3.03;1.33;;;26.60;99.90;;;;;;5049319;28;20218;-77
2021/09/17 10:48:18;;;;;;;1.17;1.00;;;26.40;99.90;;;;;;5047342;28;20268;-78
2021/09/17 10:50:50;;;;;;;1.20;1.10;;;26.30;99.90;;;;;;5044615;28;20276;-78
2021/09/17 10:54:03;;;;;;;1.10;1.00;;;26.20;99.90;;;;;;5048363;28;20225;-78
2021/09/17 10:57:03;;;;;;;5.60;1.13;;;26.00;99.90;;;;;;5050532;28;20223;-79
2021/09/17 10:59:44;;;;;;;2.38;1.30;;;26.00;99.90;;;;;;5051619;28;20214;-78
2021/09/17 11:02:12;;;;;;;1.40;1.05;;;26.10;99.90;;;;;;5052478;28;20222;-77
2021/09/17 11:04:41;;;;;;;1.45;1.30;;;26.30;99.90;;;;;;5047812;28;20230;-79
2021/09/17 11:07:34;;;;;;;1.30;0.95;;;26.20;99.90;;;;;;5051854;28;20225;-77
2021/09/17 11:10:03;;;;;;;1.70;1.20;;;26.20;99.90;;;;;;5047514;28;20321;-77
2021/09/17 11:12:33;;;;;;;1.80;1.13;;;26.40;99.90;;;;;;5051951;28;20332;-77
2021/09/17 11:15:09;;;;;;;1.60;1.02;;;26.50;99.90;;;;;;5048546;28;20288;-78
2021/09/17 11:17:42;;;;;;;1.10;1.00;;;26.70;99.90;;;;;;5049811;28;20222;-79
2021/09/17 11:20:13;;;;;;;0.98;0.98;;;26.70;99.90;;;;;;5050926;28;20222;-77
2021/09/17 11:22:54;;;;;;;1.60;1.08;;;26.80;99.90;;;;;;5050659;28;20223;-77
2021/09/17 11:25:24;;;;;;;0.80;0.80;;;26.80;99.90;;;;;;5044181;28;20327;-78
2021/09/17 11:27:52;;;;;;;0.95;0.80;;;26.70;99.90;;;;;;5046780;28;20633;-77
2021/09/17 11:30:22;;;;;;;0.70;0.70;;;26.70;99.90;;;;;;5051050;28;20229;-78
2021/09/17 11:32:50;;;;;;;1.33;0.98;;;26.80;99.90;;;;;;5052524;28;20606;-77
2021/09/17 11:35:17;;;;;;;0.82;0.82;;;27.10;99.90;;;;;;5042816;28;20230;-77
2021/09/17 11:37:52;;;;;;;0.80;0.80;;;27.20;99.90;;;;;;5044646;28;20246;-77
2021/09/17 11:40:21;;;;;;;1.58;1.00;;;27.10;99.90;;;;;;5045015;28;20247;-77
2021/09/17 11:42:48;;;;;;;1.13;0.80;;;27.10;99.90;;;;;;5045849;28;20214;-77
2021/09/17 11:45:18;;;;;;;0.90;0.75;;;26.90;99.90;;;;;;5051364;28;20222;-77
2021/09/17 11:47:49;;;;;;;0.98;0.90;;;27.00;99.90;;;;;;5045784;28;20276;-78
2021/09/17 11:50:18;;;;;;;0.93;0.90;;;27.10;99.90;;;;;;5043539;28;20763;-77
2021/09/17 11:52:47;;;;;;;0.60;0.60;;;27.10;99.90;;;;;;5042850;28;20217;-78
2021/09/17 11:55:16;;;;;;;1.20;0.80;;;27.10;99.90;;;;;;5051363;28;20279;-78
2021/09/17 11:57:45;;;;;;;0.63;0.63;;;27.10;99.90;;;;;;5046454;28;20225;-78
2021/09/17 12:00:14;;;;;;;0.90;0.80;;;27.10;99.90;;;;;;5046917;28;20222;-77
2021/09/17 12:02:44;;;;;;;0.80;0.80;;;26.90;99.90;;;;;;5044354;28;20700;-78
2021/09/17 12:05:16;;;;;;;0.88;0.60;;;26.80;99.90;;;;;;5047085;28;20227;-76
2021/09/17 12:07:44;;;;;;;0.68;0.68;;;26.90;99.90;;;;;;5048861;28;20229;-77
2021/09/17 12:10:13;;;;;;;0.65;0.60;;;27.00;99.90;;;;;;5046695;28;20283;-76
2021/09/17 12:12:42;;;;;;;0.90;0.90;;;27.10;99.90;;;;;;5051356;28;20307;-76
2021/09/17 12:15:11;;;;;;;2.58;1.02;;;26.80;99.90;;;;;;5046134;28;20245;-78
2021/09/17 12:17:57;;;;;;;0.70;0.70;;;26.70;99.90;;;;;;5048501;28;20696;-77
2021/09/17 12:20:43;;;;;;;1.02;0.90;;;26.70;99.90;;;;;;5042842;28;20218;-77
2021/09/17 12:23:13;;;;;;;0.73;0.73;;;26.50;99.90;;;;;;5030870;28;20218;-77
2021/09/17 12:25:41;;;;;;;0.95;0.85;;;26.80;99.90;;;;;;5046698;28;20238;-77
2021/09/17 12:28:11;;;;;;;0.70;0.70;;;27.00;99.90;;;;;;5021826;28;20403;-78
2021/09/17 12:30:39;;;;;;;0.70;0.68;;;26.90;99.90;;;;;;5044456;28;20301;-77
2021/09/17 12:33:16;;;;;;;0.88;0.75;;;26.90;99.90;;;;;;5050959;28;21258;-77
2021/09/17 12:35:45;;;;;;;2.20;0.90;;;26.80;99.90;;;;;;5047298;28;20245;-79
2021/09/17 12:38:13;;;;;;;0.80;0.80;;;26.80;99.90;;;;;;5051572;28;20318;-77
2021/09/17 12:40:42;;;;;;;0.77;0.70;;;26.90;99.90;;;;;;5047374;28;20233;-77
2021/09/17 12:43:11;;;;;;;0.80;0.80;;;27.00;99.90;;;;;;5050941;28;20214;-78
2021/09/17 12:45:41;;;;;;;1.08;0.90;;;27.10;99.90;;;;;;5040321;28;20299;-77
2021/09/17 12:48:09;;;;;;;1.30;0.88;;;27.10;99.90;;;;;;5050236;28;20225;-76
2021/09/17 12:50:40;;;;;;;1.00;0.80;;;27.10;99.90;;;;;;5043955;28;20230;-78
2021/09/17 12:53:12;;;;;;;1.08;0.80;;;27.10;99.90;;;;;;5046288;28;20640;-79
2021/09/17 12:55:40;;;;;;;0.82;0.70;;;27.10;99.90;;;;;;5020823;28;20225;-78